sensor_id;sensor_type;location;lat;lon;timestamp;temperature;humidity
57088;DHT22;42965;52.846;6.614;2022-08-21T00:00:22;15.30;99.90
57088;DHT22;42965;52.846;6.614;2022-08-21T00:03:04;15.30;99.90
57088;DHT22;42965;52.846;6.614;2022-08-21T00:05:32;15.20;99.90
57088;DHT22;42965;52.846;6.614;2022-08-21T00:07:59;15.20;99.90
57088;DHT22;42965;52.846;6.614;2022-08-21T00:10:26;15.20;99.90
57088;DHT22;42965;52.846;6.614;2022-08-21T00:12:52;15.20;99.90
57088;DHT22;42965;52.846;6.614;2022-08-21T00:15:23;15.10;99.90
57088;DHT22;42965;52.846;6.614;2022-08-21T00:17:52;15.10;99.90
57088;DHT22;42965;52.846;6.614;2022-08-21T00:20:19;15.10;99.90
57088;DHT22;42965;52.846;6.614;2022-08-21T00:22:47;15.10;99.90
57088;DHT22;42965;52.846;6.614;2022-08-21T00:25:14;15.00;99.90
57088;DHT22;42965;52.846;6.614;2022-08-21T00:27:41;15.00;99.90
57088;DHT22;42965;52.846;6.614;2022-08-21T00:30:10;15.00;99.90
57088;DHT22;42965;52.846;6.614;2022-08-21T00:32:38;15.00;99.90
57088;DHT22;42965;52.846;6.614;2022-08-21T00:35:07;15.00;99.90
57088;DHT22;42965;52.846;6.614;2022-08-21T00:37:34;14.90;99.90
57088;DHT22;42965;52.846;6.614;2022-08-21T00:40:00;14.90;99.90
57088;DHT22;42965;52.846;6.614;2022-08-21T00:42:28;14.90;99.90
57088;DHT22;42965;52.846;6.614;2022-08-21T00:44:56;14.80;99.90
57088;DHT22;42965;52.846;6.614;2022-08-21T00:47:22;14.80;99.90
57088;DHT22;42965;52.846;6.614;2022-08-21T00:49:48;14.80;99.90
57088;DHT22;42965;52.846;6.614;2022-08-21T00:52:22;14.70;99.90
57088;DHT22;42965;52.846;6.614;2022-08-21T00:54:50;14.70;99.90
57088;DHT22;42965;52.846;6.614;2022-08-21T00:57:20;14.70;99.90
57088;DHT22;42965;52.846;6.614;2022-08-21T00:59:49;14.60;99.90
57088;DHT22;42965;52.846;6.614;2022-08-21T01:02:18;14.60;99.90
57088;DHT22;42965;52.846;6.614;2022-08-21T01:04:50;14.60;99.90
57088;DHT22;42965;52.846;6.614;2022-08-21T01:07:16;14.50;99.90
57088;DHT22;42965;52.846;6.614;2022-08-21T01:09:43;14.50;99.90
57088;DHT22;42965;52.846;6.614;2022-08-21T01:12:10;14.50;99.90
57088;DHT22;42965;52.846;6.614;2022-08-21T01:14:37;14.50;99.90
57088;DHT22;42965;52.846;6.614;2022-08-21T01:17:05;14.50;99.90
57088;DHT22;42965;52.846;6.614;2022-08-21T01:19:31;14.40;99.90
57088;DHT22;42965;52.846;6.614;2022-08-21T01:21:58;14.40;99.90
57088;DHT22;42965;52.846;6.614;2022-08-21T01:24:25;14.40;99.90
57088;DHT22;42965;52.846;6.614;2022-08-21T01:26:52;14.40;99.90
57088;DHT22;42965;52.846;6.614;2022-08-21T01:29:39;14.30;99.90
57088;DHT22;42965;52.846;6.614;2022-08-21T01:32:10;14.30;99.90
57088;DHT22;42965;52.846;6.614;2022-08-21T01:34:38;14.30;99.90
57088;DHT22;42965;52.846;6.614;2022-08-21T01:37:05;14.30;99.90
57088;DHT22;42965;52.846;6.614;2022-08-21T01:39:32;14.20;99.90
57088;DHT22;42965;52.846;6.614;2022-08-21T01:41:59;14.20;99.90
57088;DHT22;42965;52.846;6.614;2022-08-21T01:44:26;14.20;99.90
57088;DHT22;42965;52.846;6.614;2022-08-21T01:46:52;14.10;99.90
57088;DHT22;42965;52.846;6.614;2022-08-21T01:49:19;14.20;99.90
57088;DHT22;42965;52.846;6.614;2022-08-21T01:51:45;14.10;99.90
57088;DHT22;42965;52.846;6.614;2022-08-21T01:54:11;14.10;99.90
57088;DHT22;42965;52.846;6.614;2022-08-21T01:56:40;14.10;99.90
57088;DHT22;42965;52.846;6.614;2022-08-21T01:59:09;14.10;99.90
57088;DHT22;42965;52.846;6.614;2022-08-21T02:01:36;14.00;99.90
57088;DHT22;42965;52.846;6.614;2022-08-21T02:04:02;13.90;99.90
57088;DHT22;42965;52.846;6.614;2022-08-21T02:06:29;13.90;99.90
57088;DHT22;42965;52.846;6.614;2022-08-21T02:08:55;13.90;99.90
57088;DHT22;42965;52.846;6.614;2022-08-21T02:11:21;13.90;99.90
57088;DHT22;42965;52.846;6.614;2022-08-21T02:13:47;13.80;99.90
57088;DHT22;42965;52.846;6.614;2022-08-21T02:16:13;13.90;99.90
57088;DHT22;42965;52.846;6.614;2022-08-21T02:18:40;13.90;99.90
57088;DHT22;42965;52.846;6.614;2022-08-21T02:21:07;13.80;99.90
57088;DHT22;42965;52.846;6.614;2022-08-21T02:23:33;13.80;99.90
57088;DHT22;42965;52.846;6.614;2022-08-21T02:26:01;13.80;99.90
57088;DHT22;42965;52.846;6.614;2022-08-21T02:28:28;13.80;99.90
57088;DHT22;42965;52.846;6.614;2022-08-21T02:30:55;13.90;99.90
57088;DHT22;42965;52.846;6.614;2022-08-21T02:33:22;13.80;99.90
57088;DHT22;42965;52.846;6.614;2022-08-21T02:35:49;13.80;99.90
57088;DHT22;42965;52.846;6.614;2022-08-21T02:38:20;13.70;99.90
57088;DHT22;42965;52.846;6.614;2022-08-21T02:40:48;13.70;99.90
57088;DHT22;42965;52.846;6.614;2022-08-21T02:43:15;13.70;99.90
57088;DHT22;42965;52.846;6.614;2022-08-21T02:45:43;13.70;99.90
57088;DHT22;42965;52.846;6.614;2022-08-21T02:48:18;13.60;99.90
57088;DHT22;42965;52.846;6.614;2022-08-21T02:50:47;13.60;99.90
57088;DHT22;42965;52.846;6.614;2022-08-21T02:53:15;13.60;99.90
57088;DHT22;42965;52.846;6.614;2022-08-21T02:55:44;13.50;99.90
57088;DHT22;42965;52.846;6.614;2022-08-21T02:58:15;13.50;99.90
57088;DHT22;42965;52.846;6.614;2022-08-21T03:00:42;13.60;99.90
57088;DHT22;42965;52.846;6.614;2022-08-21T03:03:09;13.50;99.90
57088;DHT22;42965;52.846;6.614;2022-08-21T03:05:36;13.50;99.90
57088;DHT22;42965;52.846;6.614;2022-08-21T03:08:09;13.50;99.90
57088;DHT22;42965;52.846;6.614;2022-08-21T03:10:38;13.50;99.90
57088;DHT22;42965;52.846;6.614;2022-08-21T03:13:06;13.40;99.90
57088;DHT22;42965;52.846;6.614;2022-08-21T03:15:32;13.40;99.90
57088;DHT22;42965;52.846;6.614;2022-08-21T03:18:02;13.40;99.90
57088;DHT22;42965;52.846;6.614;2022-08-21T03:20:34;13.30;99.90
57088;DHT22;42965;52.846;6.614;2022-08-21T03:23:02;13.40;99.90
57088;DHT22;42965;52.846;6.614;2022-08-21T03:25:29;13.30;99.90
57088;DHT22;42965;52.846;6.614;2022-08-21T03:27:58;13.30;99.90
57088;DHT22;42965;52.846;6.614;2022-08-21T03:30:25;13.30;99.90
57088;DHT22;42965;52.846;6.614;2022-08-21T03:32:51;13.30;99.90
57088;DHT22;42965;52.846;6.614;2022-08-21T03:35:19;13.30;99.90
57088;DHT22;42965;52.846;6.614;2022-08-21T03:37:46;13.30;99.90
57088;DHT22;42965;52.846;6.614;2022-08-21T03:40:15;13.30;99.90
57088;DHT22;42965;52.846;6.614;2022-08-21T03:42:42;13.30;99.90
57088;DHT22;42965;52.846;6.614;2022-08-21T03:45:09;13.30;99.90
57088;DHT22;42965;52.846;6.614;2022-08-21T03:47:35;13.30;99.90
57088;DHT22;42965;52.846;6.614;2022-08-21T03:50:04;13.30;99.90
57088;DHT22;42965;52.846;6.614;2022-08-21T03:52:31;13.30;99.90
57088;DHT22;42965;52.846;6.614;2022-08-21T03:55:03;13.30;99.90
57088;DHT22;42965;52.846;6.614;2022-08-21T03:57:29;13.30;99.90
57088;DHT22;42965;52.846;6.614;2022-08-21T03:59:55;13.30;99.90
57088;DHT22;42965;52.846;6.614;2022-08-21T04:02:21;13.30;99.90
57088;DHT22;42965;52.846;6.614;2022-08-21T04:04:48;13.30;99.90
57088;DHT22;42965;52.846;6.614;2022-08-21T04:07:17;13.30;99.90
57088;DHT22;42965;52.846;6.614;2022-08-21T04:09:43;13.30;99.90
57088;DHT22;42965;52.846;6.614;2022-08-21T04:12:09;13.30;99.90
57088;DHT22;42965;52.846;6.614;2022-08-21T04:14:35;13.30;99.90
57088;DHT22;42965;52.846;6.614;2022-08-21T04:17:02;13.30;99.90
57088;DHT22;42965;52.846;6.614;2022-08-21T04:19:28;13.30;99.90
57088;DHT22;42965;52.846;6.614;2022-08-21T04:21:54;13.20;99.90
57088;DHT22;42965;52.846;6.614;2022-08-21T04:24:20;13.20;99.90
57088;DHT22;42965;52.846;6.614;2022-08-21T04:26:46;13.20;99.90
57088;DHT22;42965;52.846;6.614;2022-08-21T04:29:12;13.20;99.90
57088;DHT22;42965;52.846;6.614;2022-08-21T04:31:39;13.20;99.90
57088;DHT22;42965;52.846;6.614;2022-08-21T04:34:09;13.20;99.90
57088;DHT22;42965;52.846;6.614;2022-08-21T04:36:35;13.20;99.90
57088;DHT22;42965;52.846;6.614;2022-08-21T04:39:03;13.20;99.90
57088;DHT22;42965;52.846;6.614;2022-08-21T04:41:29;13.20;99.90
57088;DHT22;42965;52.846;6.614;2022-08-21T04:43:58;13.20;99.90
57088;DHT22;42965;52.846;6.614;2022-08-21T04:46:25;13.30;99.90
57088;DHT22;42965;52.846;6.614;2022-08-21T04:48:51;13.40;99.90
57088;DHT22;42965;52.846;6.614;2022-08-21T04:51:33;13.30;99.90
57088;DHT22;42965;52.846;6.614;2022-08-21T04:54:16;13.40;99.90
57088;DHT22;42965;52.846;6.614;2022-08-21T04:56:52;13.40;99.90
57088;DHT22;42965;52.846;6.614;2022-08-21T04:59:28;13.40;99.90
57088;DHT22;42965;52.846;6.614;2022-08-21T05:01:55;13.40;99.90
57088;DHT22;42965;52.846;6.614;2022-08-21T05:04:25;13.40;99.90
57088;DHT22;42965;52.846;6.614;2022-08-21T05:06:54;13.50;99.90
57088;DHT22;42965;52.846;6.614;2022-08-21T05:09:21;13.50;99.90
57088;DHT22;42965;52.846;6.614;2022-08-21T05:11:49;13.50;99.90
57088;DHT22;42965;52.846;6.614;2022-08-21T05:14:17;13.50;99.90
57088;DHT22;42965;52.846;6.614;2022-08-21T05:16:46;13.60;99.90
57088;DHT22;42965;52.846;6.614;2022-08-21T05:19:12;13.60;99.90
57088;DHT22;42965;52.846;6.614;2022-08-21T05:21:42;13.60;99.90
57088;DHT22;42965;52.846;6.614;2022-08-21T05:24:09;13.70;99.90
57088;DHT22;42965;52.846;6.614;2022-08-21T05:26:37;13.80;99.90
57088;DHT22;42965;52.846;6.614;2022-08-21T05:29:04;13.90;99.90
57088;DHT22;42965;52.846;6.614;2022-08-21T05:31:30;14.10;99.90
57088;DHT22;42965;52.846;6.614;2022-08-21T05:33:59;14.30;99.90
57088;DHT22;42965;52.846;6.614;2022-08-21T05:36:25;14.50;99.90
57088;DHT22;42965;52.846;6.614;2022-08-21T05:38:52;14.60;99.90
57088;DHT22;42965;52.846;6.614;2022-08-21T05:41:18;14.80;99.90
57088;DHT22;42965;52.846;6.614;2022-08-21T05:43:46;14.90;99.90
57088;DHT22;42965;52.846;6.614;2022-08-21T05:46:13;15.00;99.90
57088;DHT22;42965;52.846;6.614;2022-08-21T05:48:42;15.10;99.90
57088;DHT22;42965;52.846;6.614;2022-08-21T05:51:12;15.40;99.90
57088;DHT22;42965;52.846;6.614;2022-08-21T05:53:43;15.60;99.90
57088;DHT22;42965;52.846;6.614;2022-08-21T05:56:11;15.70;99.90
57088;DHT22;42965;52.846;6.614;2022-08-21T05:58:38;15.90;99.90
57088;DHT22;42965;52.846;6.614;2022-08-21T06:01:05;16.00;99.90
57088;DHT22;42965;52.846;6.614;2022-08-21T06:03:36;16.20;99.90
57088;DHT22;42965;52.846;6.614;2022-08-21T06:06:06;16.30;99.90
57088;DHT22;42965;52.846;6.614;2022-08-21T06:08:33;16.60;99.90
57088;DHT22;42965;52.846;6.614;2022-08-21T06:11:01;16.60;99.90
57088;DHT22;42965;52.846;6.614;2022-08-21T06:13:28;16.90;99.90
57088;DHT22;42965;52.846;6.614;2022-08-21T06:16:08;17.00;99.90
57088;DHT22;42965;52.846;6.614;2022-08-21T06:18:36;17.00;99.90
57088;DHT22;42965;52.846;6.614;2022-08-21T06:21:03;17.30;99.90
57088;DHT22;42965;52.846;6.614;2022-08-21T06:23:30;17.50;99.90
57088;DHT22;42965;52.846;6.614;2022-08-21T06:25:58;17.70;99.90
57088;DHT22;42965;52.846;6.614;2022-08-21T06:28:24;17.70;99.90
57088;DHT22;42965;52.846;6.614;2022-08-21T06:30:53;17.90;99.90
57088;DHT22;42965;52.846;6.614;2022-08-21T06:33:20;18.00;99.90
57088;DHT22;42965;52.846;6.614;2022-08-21T06:35:46;18.10;99.90
57088;DHT22;42965;52.846;6.614;2022-08-21T06:38:12;18.30;99.90
57088;DHT22;42965;52.846;6.614;2022-08-21T06:40:38;18.50;99.90
57088;DHT22;42965;52.846;6.614;2022-08-21T06:43:08;18.60;99.90
57088;DHT22;42965;52.846;6.614;2022-08-21T06:45:35;18.70;99.90
57088;DHT22;42965;52.846;6.614;2022-08-21T06:53:42;19.10;99.90
57088;DHT22;42965;52.846;6.614;2022-08-21T06:57:32;19.30;99.90
57088;DHT22;42965;52.846;6.614;2022-08-21T06:59:58;19.50;99.90
57088;DHT22;42965;52.846;6.614;2022-08-21T07:02:25;19.80;99.90
57088;DHT22;42965;52.846;6.614;2022-08-21T07:04:52;20.00;99.90
57088;DHT22;42965;52.846;6.614;2022-08-21T07:07:18;20.40;99.90
57088;DHT22;42965;52.846;6.614;2022-08-21T07:09:44;20.60;99.90
57088;DHT22;42965;52.846;6.614;2022-08-21T07:12:20;20.70;99.90
57088;DHT22;42965;52.846;6.614;2022-08-21T07:14:59;20.90;99.90
57088;DHT22;42965;52.846;6.614;2022-08-21T07:17:30;21.00;99.90
57088;DHT22;42965;52.846;6.614;2022-08-21T07:20:04;21.20;99.90
57088;DHT22;42965;52.846;6.614;2022-08-21T07:22:30;21.30;99.90
57088;DHT22;42965;52.846;6.614;2022-08-21T07:24:57;21.70;99.90
57088;DHT22;42965;52.846;6.614;2022-08-21T07:27:25;21.90;99.90
57088;DHT22;42965;52.846;6.614;2022-08-21T07:29:53;22.20;99.90
57088;DHT22;42965;52.846;6.614;2022-08-21T07:32:19;22.50;99.90
57088;DHT22;42965;52.846;6.614;2022-08-21T07:34:45;22.50;99.90
57088;DHT22;42965;52.846;6.614;2022-08-21T07:37:12;22.90;99.90
57088;DHT22;42965;52.846;6.614;2022-08-21T07:39:38;23.10;99.90
57088;DHT22;42965;52.846;6.614;2022-08-21T07:42:07;23.20;99.90
57088;DHT22;42965;52.846;6.614;2022-08-21T07:44:33;23.20;99.90
57088;DHT22;42965;52.846;6.614;2022-08-21T07:47:00;23.10;99.90
57088;DHT22;42965;52.846;6.614;2022-08-21T07:49:27;23.40;99.90
57088;DHT22;42965;52.846;6.614;2022-08-21T07:51:54;23.50;99.90
57088;DHT22;42965;52.846;6.614;2022-08-21T07:54:20;23.90;99.90
57088;DHT22;42965;52.846;6.614;2022-08-21T07:56:48;24.00;99.90
57088;DHT22;42965;52.846;6.614;2022-08-21T07:59:17;24.10;99.90
57088;DHT22;42965;52.846;6.614;2022-08-21T08:01:43;23.90;99.90
57088;DHT22;42965;52.846;6.614;2022-08-21T08:04:09;24.30;99.90
57088;DHT22;42965;52.846;6.614;2022-08-21T08:06:35;24.20;99.90
57088;DHT22;42965;52.846;6.614;2022-08-21T08:09:01;24.20;99.90
57088;DHT22;42965;52.846;6.614;2022-08-21T08:11:30;24.20;99.90
57088;DHT22;42965;52.846;6.614;2022-08-21T08:13:56;24.20;99.90
57088;DHT22;42965;52.846;6.614;2022-08-21T08:16:26;24.30;99.90
57088;DHT22;42965;52.846;6.614;2022-08-21T08:18:52;24.60;99.90
57088;DHT22;42965;52.846;6.614;2022-08-21T08:21:21;24.60;99.90
57088;DHT22;42965;52.846;6.614;2022-08-21T08:23:48;24.50;99.90
57088;DHT22;42965;52.846;6.614;2022-08-21T08:26:14;24.40;99.90
57088;DHT22;42965;52.846;6.614;2022-08-21T08:28:44;24.60;99.90
57088;DHT22;42965;52.846;6.614;2022-08-21T08:31:14;24.50;99.90
57088;DHT22;42965;52.846;6.614;2022-08-21T08:33:40;24.80;99.90
57088;DHT22;42965;52.846;6.614;2022-08-21T08:36:13;24.90;99.90
57088;DHT22;42965;52.846;6.614;2022-08-21T08:38:40;25.10;99.90
57088;DHT22;42965;52.846;6.614;2022-08-21T08:41:15;25.70;99.90
57088;DHT22;42965;52.846;6.614;2022-08-21T08:43:48;25.90;99.70
57088;DHT22;42965;52.846;6.614;2022-08-21T08:46:19;26.40;99.50
57088;DHT22;42965;52.846;6.614;2022-08-21T08:48:51;26.20;98.00
57088;DHT22;42965;52.846;6.614;2022-08-21T08:51:39;25.00;98.50
57088;DHT22;42965;52.846;6.614;2022-08-21T08:54:15;24.80;99.90
57088;DHT22;42965;52.846;6.614;2022-08-21T08:56:43;24.10;99.90
57088;DHT22;42965;52.846;6.614;2022-08-21T08:59:16;23.80;99.90
57088;DHT22;42965;52.846;6.614;2022-08-21T09:01:44;23.10;99.90
57088;DHT22;42965;52.846;6.614;2022-08-21T09:04:11;23.00;99.90
57088;DHT22;42965;52.846;6.614;2022-08-21T09:07:34;23.00;99.90
57088;DHT22;42965;52.846;6.614;2022-08-21T09:18:51;25.80;97.70
57088;DHT22;42965;52.846;6.614;2022-08-21T09:27:27;26.40;91.30
57088;DHT22;42965;52.846;6.614;2022-08-21T09:29:54;26.70;93.20
57088;DHT22;42965;52.846;6.614;2022-08-21T09:32:28;27.30;91.40
57088;DHT22;42965;52.846;6.614;2022-08-21T09:35:03;27.30;90.30
57088;DHT22;42965;52.846;6.614;2022-08-21T09:37:32;27.40;83.80
57088;DHT22;42965;52.846;6.614;2022-08-21T09:40:03;27.70;80.90
57088;DHT22;42965;52.846;6.614;2022-08-21T09:42:40;28.00;79.60
57088;DHT22;42965;52.846;6.614;2022-08-21T09:47:39;28.00;76.60
57088;DHT22;42965;52.846;6.614;2022-08-21T09:50:19;28.60;78.10
57088;DHT22;42965;52.846;6.614;2022-08-21T09:53:13;28.50;72.20
57088;DHT22;42965;52.846;6.614;2022-08-21T09:55:54;28.90;73.30
57088;DHT22;42965;52.846;6.614;2022-08-21T09:58:46;28.10;72.20
57088;DHT22;42965;52.846;6.614;2022-08-21T10:01:22;28.50;75.30
57088;DHT22;42965;52.846;6.614;2022-08-21T10:04:06;28.70;72.20
57088;DHT22;42965;52.846;6.614;2022-08-21T10:06:33;29.20;70.30
57088;DHT22;42965;52.846;6.614;2022-08-21T10:09:12;28.80;70.80
57088;DHT22;42965;52.846;6.614;2022-08-21T10:11:40;28.70;70.60
57088;DHT22;42965;52.846;6.614;2022-08-21T10:17:06;29.10;71.00
57088;DHT22;42965;52.846;6.614;2022-08-21T10:39:02;30.20;66.20
57088;DHT22;42965;52.846;6.614;2022-08-21T10:44:38;30.60;63.10
57088;DHT22;42965;52.846;6.614;2022-08-21T10:47:15;30.90;64.40
57088;DHT22;42965;52.846;6.614;2022-08-21T10:55:35;28.80;67.10
57088;DHT22;42965;52.846;6.614;2022-08-21T10:58:16;29.20;67.10
57088;DHT22;42965;52.846;6.614;2022-08-21T11:00:47;29.70;68.40
57088;DHT22;42965;52.846;6.614;2022-08-21T11:03:32;30.10;65.40
57088;DHT22;42965;52.846;6.614;2022-08-21T11:06:24;30.60;61.40
57088;DHT22;42965;52.846;6.614;2022-08-21T11:08:58;30.90;62.80
57088;DHT22;42965;52.846;6.614;2022-08-21T11:11:29;31.20;62.50
57088;DHT22;42965;52.846;6.614;2022-08-21T11:15:11;31.30;63.50
57088;DHT22;42965;52.846;6.614;2022-08-21T11:17:13;31.60;60.10
57088;DHT22;42965;52.846;6.614;2022-08-21T11:25:00;30.20;60.50
57088;DHT22;42965;52.846;6.614;2022-08-21T11:30:00;30.60;63.70
57088;DHT22;42965;52.846;6.614;2022-08-21T11:32:38;30.70;61.40
57088;DHT22;42965;52.846;6.614;2022-08-21T11:35:32;30.30;60.60
57088;DHT22;42965;52.846;6.614;2022-08-21T11:41:35;29.90;60.30
57088;DHT22;42965;52.846;6.614;2022-08-21T11:44:29;30.00;59.40
57088;DHT22;42965;52.846;6.614;2022-08-21T11:47:14;30.60;59.10
57088;DHT22;42965;52.846;6.614;2022-08-21T11:50:11;30.80;58.40
57088;DHT22;42965;52.846;6.614;2022-08-21T11:55:23;31.00;59.30
57088;DHT22;42965;52.846;6.614;2022-08-21T11:57:55;30.90;57.60
57088;DHT22;42965;52.846;6.614;2022-08-21T12:03:28;30.30;60.30
57088;DHT22;42965;52.846;6.614;2022-08-21T12:05:59;29.80;60.30
57088;DHT22;42965;52.846;6.614;2022-08-21T12:08:31;29.40;60.10
57088;DHT22;42965;52.846;6.614;2022-08-21T12:11:22;28.90;61.20
57088;DHT22;42965;52.846;6.614;2022-08-21T12:14:11;28.60;61.20
57088;DHT22;42965;52.846;6.614;2022-08-21T12:16:41;28.20;62.10
57088;DHT22;42965;52.846;6.614;2022-08-21T12:19:27;28.00;63.30
57088;DHT22;42965;52.846;6.614;2022-08-21T12:26:57;27.10;67.30
57088;DHT22;42965;52.846;6.614;2022-08-21T12:29:30;27.00;68.60
57088;DHT22;42965;52.846;6.614;2022-08-21T12:34:49;28.10;67.00
57088;DHT22;42965;52.846;6.614;2022-08-21T12:40:02;29.30;62.20
57088;DHT22;42965;52.846;6.614;2022-08-21T12:42:46;29.60;62.10
57088;DHT22;42965;52.846;6.614;2022-08-21T12:45:19;30.20;60.50
57088;DHT22;42965;52.846;6.614;2022-08-21T12:47:55;29.80;59.70
57088;DHT22;42965;52.846;6.614;2022-08-21T12:50:36;30.00;60.80
57088;DHT22;42965;52.846;6.614;2022-08-21T12:55:42;30.90;59.30
57088;DHT22;42965;52.846;6.614;2022-08-21T12:58:30;31.30;58.80
57088;DHT22;42965;52.846;6.614;2022-08-21T13:01:06;31.10;57.00
57088;DHT22;42965;52.846;6.614;2022-08-21T13:03:36;30.70;57.40
57088;DHT22;42965;52.846;6.614;2022-08-21T13:06:06;30.20;58.20
57088;DHT22;42965;52.846;6.614;2022-08-21T13:08:36;29.70;59.60
57088;DHT22;42965;52.846;6.614;2022-08-21T13:11:05;29.10;61.70
57088;DHT22;42965;52.846;6.614;2022-08-21T13:13:33;28.90;63.00
57088;DHT22;42965;52.846;6.614;2022-08-21T13:16:03;28.30;63.70
57088;DHT22;42965;52.846;6.614;2022-08-21T13:18:32;28.10;63.50
57088;DHT22;42965;52.846;6.614;2022-08-21T13:21:09;27.70;65.80
57088;DHT22;42965;52.846;6.614;2022-08-21T13:23:36;27.60;70.10
57088;DHT22;42965;52.846;6.614;2022-08-21T13:26:17;27.40;68.30
57088;DHT22;42965;52.846;6.614;2022-08-21T13:28:44;27.00;73.30
57088;DHT22;42965;52.846;6.614;2022-08-21T13:31:17;26.80;75.50
57088;DHT22;42965;52.846;6.614;2022-08-21T13:33:47;26.70;78.00
57088;DHT22;42965;52.846;6.614;2022-08-21T13:36:18;26.60;78.10
57088;DHT22;42965;52.846;6.614;2022-08-21T13:38:46;26.60;79.00
57088;DHT22;42965;52.846;6.614;2022-08-21T13:43:49;26.10;84.60
57088;DHT22;42965;52.846;6.614;2022-08-21T13:46:18;26.10;87.20
57088;DHT22;42965;52.846;6.614;2022-08-21T13:48:47;25.80;87.70
57088;DHT22;42965;52.846;6.614;2022-08-21T13:51:14;25.80;87.50
57088;DHT22;42965;52.846;6.614;2022-08-21T13:56:07;25.70;90.30
57088;DHT22;42965;52.846;6.614;2022-08-21T13:58:45;25.90;90.60
57088;DHT22;42965;52.846;6.614;2022-08-21T14:01:21;26.30;91.90
57088;DHT22;42965;52.846;6.614;2022-08-21T14:03:50;27.30;89.90
57088;DHT22;42965;52.846;6.614;2022-08-21T14:06:20;27.50;85.50
57088;DHT22;42965;52.846;6.614;2022-08-21T14:08:51;27.30;84.30
57088;DHT22;42965;52.846;6.614;2022-08-21T14:11:19;27.00;87.50
57088;DHT22;42965;52.846;6.614;2022-08-21T14:13:51;26.90;90.70
57088;DHT22;42965;52.846;6.614;2022-08-21T14:16:22;26.70;91.60
57088;DHT22;42965;52.846;6.614;2022-08-21T14:21:31;26.40;93.10
57088;DHT22;42965;52.846;6.614;2022-08-21T14:24:11;26.20;93.60
57088;DHT22;42965;52.846;6.614;2022-08-21T14:26:54;25.90;92.70
57088;DHT22;42965;52.846;6.614;2022-08-21T14:29:24;25.70;93.10
57088;DHT22;42965;52.846;6.614;2022-08-21T14:31:54;25.60;95.20
57088;DHT22;42965;52.846;6.614;2022-08-21T14:34:26;25.50;95.70
57088;DHT22;42965;52.846;6.614;2022-08-21T14:36:54;25.50;96.20
57088;DHT22;42965;52.846;6.614;2022-08-21T14:39:21;25.50;96.20
57088;DHT22;42965;52.846;6.614;2022-08-21T14:41:47;25.50;96.30
57088;DHT22;42965;52.846;6.614;2022-08-21T14:44:15;25.40;96.30
57088;DHT22;42965;52.846;6.614;2022-08-21T14:46:42;25.30;95.90
57088;DHT22;42965;52.846;6.614;2022-08-21T14:49:17;25.20;98.60
57088;DHT22;42965;52.846;6.614;2022-08-21T14:51:43;25.10;99.90
57088;DHT22;42965;52.846;6.614;2022-08-21T14:54:09;25.00;99.90
57088;DHT22;42965;52.846;6.614;2022-08-21T14:56:35;24.80;99.90
57088;DHT22;42965;52.846;6.614;2022-08-21T14:59:05;24.70;99.90
57088;DHT22;42965;52.846;6.614;2022-08-21T15:01:34;24.50;99.90
57088;DHT22;42965;52.846;6.614;2022-08-21T15:04:00;24.30;99.90
57088;DHT22;42965;52.846;6.614;2022-08-21T15:06:28;24.10;99.90
57088;DHT22;42965;52.846;6.614;2022-08-21T15:08:55;24.20;99.90
57088;DHT22;42965;52.846;6.614;2022-08-21T15:11:22;24.10;99.90
57088;DHT22;42965;52.846;6.614;2022-08-21T15:13:54;24.10;99.90
57088;DHT22;42965;52.846;6.614;2022-08-21T15:16:21;24.20;99.90
57088;DHT22;42965;52.846;6.614;2022-08-21T15:18:47;24.30;99.90
57088;DHT22;42965;52.846;6.614;2022-08-21T15:21:16;24.30;99.90
57088;DHT22;42965;52.846;6.614;2022-08-21T15:23:43;24.40;99.90
57088;DHT22;42965;52.846;6.614;2022-08-21T15:26:09;24.40;99.90
57088;DHT22;42965;52.846;6.614;2022-08-21T15:28:36;24.60;99.90
57088;DHT22;42965;52.846;6.614;2022-08-21T15:31:04;24.70;99.90
57088;DHT22;42965;52.846;6.614;2022-08-21T15:33:31;24.90;99.90
57088;DHT22;42965;52.846;6.614;2022-08-21T15:35:58;25.00;99.90
57088;DHT22;42965;52.846;6.614;2022-08-21T15:38:24;25.00;99.90
57088;DHT22;42965;52.846;6.614;2022-08-21T15:40:50;25.00;99.90
57088;DHT22;42965;52.846;6.614;2022-08-21T15:43:27;25.10;99.90
57088;DHT22;42965;52.846;6.614;2022-08-21T15:45:54;25.10;99.90
57088;DHT22;42965;52.846;6.614;2022-08-21T15:48:20;25.00;99.90
57088;DHT22;42965;52.846;6.614;2022-08-21T15:50:47;25.20;99.90
57088;DHT22;42965;52.846;6.614;2022-08-21T15:53:13;25.20;99.90
57088;DHT22;42965;52.846;6.614;2022-08-21T15:55:41;25.10;99.90
57088;DHT22;42965;52.846;6.614;2022-08-21T15:58:14;25.00;99.90
57088;DHT22;42965;52.846;6.614;2022-08-21T16:00:41;25.00;99.90
57088;DHT22;42965;52.846;6.614;2022-08-21T16:03:16;24.80;99.90
57088;DHT22;42965;52.846;6.614;2022-08-21T16:05:45;24.70;99.90
57088;DHT22;42965;52.846;6.614;2022-08-21T16:08:14;24.70;99.90
57088;DHT22;42965;52.846;6.614;2022-08-21T16:10:41;24.70;99.90
57088;DHT22;42965;52.846;6.614;2022-08-21T16:13:14;24.60;99.90
57088;DHT22;42965;52.846;6.614;2022-08-21T16:15:45;24.70;99.90
57088;DHT22;42965;52.846;6.614;2022-08-21T16:18:12;24.50;99.90
57088;DHT22;42965;52.846;6.614;2022-08-21T16:20:38;24.40;99.90
57088;DHT22;42965;52.846;6.614;2022-08-21T16:23:05;24.40;99.90
57088;DHT22;42965;52.846;6.614;2022-08-21T16:25:35;24.30;99.90
57088;DHT22;42965;52.846;6.614;2022-08-21T16:28:04;24.30;99.90
57088;DHT22;42965;52.846;6.614;2022-08-21T16:30:32;24.10;99.90
57088;DHT22;42965;52.846;6.614;2022-08-21T16:33:00;24.10;99.90
57088;DHT22;42965;52.846;6.614;2022-08-21T16:35:27;24.00;99.90
57088;DHT22;42965;52.846;6.614;2022-08-21T16:37:53;23.90;99.90
57088;DHT22;42965;52.846;6.614;2022-08-21T16:40:20;23.90;99.90
57088;DHT22;42965;52.846;6.614;2022-08-21T16:42:48;23.80;99.90
57088;DHT22;42965;52.846;6.614;2022-08-21T16:45:19;23.70;99.90
57088;DHT22;42965;52.846;6.614;2022-08-21T16:47:46;23.70;99.90
57088;DHT22;42965;52.846;6.614;2022-08-21T16:50:22;23.60;99.90
57088;DHT22;42965;52.846;6.614;2022-08-21T16:52:49;23.50;99.90
57088;DHT22;42965;52.846;6.614;2022-08-21T16:55:15;23.50;99.90
57088;DHT22;42965;52.846;6.614;2022-08-21T16:57:42;23.50;99.90
57088;DHT22;42965;52.846;6.614;2022-08-21T17:00:09;23.40;99.90
57088;DHT22;42965;52.846;6.614;2022-08-21T17:02:48;23.40;99.90
57088;DHT22;42965;52.846;6.614;2022-08-21T17:05:16;23.30;99.90
57088;DHT22;42965;52.846;6.614;2022-08-21T17:07:42;23.30;99.90
57088;DHT22;42965;52.846;6.614;2022-08-21T17:10:10;23.30;99.90
57088;DHT22;42965;52.846;6.614;2022-08-21T17:12:38;23.10;99.90
57088;DHT22;42965;52.846;6.614;2022-08-21T17:15:17;23.00;99.90
57088;DHT22;42965;52.846;6.614;2022-08-21T17:17:47;23.00;99.90
57088;DHT22;42965;52.846;6.614;2022-08-21T17:20:13;23.00;99.90